< < Back
Terminal Aerodrome Forecast


Current Version              Previous Versions:   1  2  3  4  5  6  7  8  9  

Terminal Aerodrome Forecast

210
FTUS44 KBMX 141138
TAFANB
TAF
KANB 141138Z 1412/1512 06006KT P6SM SCT250
     FM141300 11006KT P6SM BKN050 BKN070
     FM141800 15009KT P6SM BKN050=



Latest METAR

252
SAUS70 KWBC 142300 RRA
MTRANB
METAR KANB 142253Z AUTO 14006KT 10SM CLR 12/M09 A3013 RMK AO2 SLP211
T01221089


USA.gov is the U.S. government's official web portal to all federal, state and local government web resources and services.